sensor_id;sensor_type;location;lat;lon;timestamp;pressure;altitude;pressure_sealevel;temperature;humidity
11672;BME280;5892;43.412;24.612;2023-02-17T00:00:18;100816.66;;;2.08;100.00
11672;BME280;5892;43.412;24.612;2023-02-17T00:02:45;100824.28;;;2.11;100.00
11672;BME280;5892;43.412;24.612;2023-02-17T00:05:12;100802.16;;;1.86;100.00
11672;BME280;5892;43.412;24.612;2023-02-17T00:07:39;100813.84;;;2.03;100.00
11672;BME280;5892;43.412;24.612;2023-02-17T00:10:07;100807.19;;;1.94;100.00
11672;BME280;5892;43.412;24.612;2023-02-17T00:12:35;100772.25;;;1.76;100.00
11672;BME280;5892;43.412;24.612;2023-02-17T00:15:02;100812.84;;;1.93;100.00
11672;BME280;5892;43.412;24.612;2023-02-17T00:17:31;100813.19;;;1.96;100.00
11672;BME280;5892;43.412;24.612;2023-02-17T00:19:58;100818.34;;;1.98;100.00
11672;BME280;5892;43.412;24.612;2023-02-17T00:22:25;100809.97;;;1.99;100.00
11672;BME280;5892;43.412;24.612;2023-02-17T00:24:51;100804.97;;;1.91;100.00
11672;BME280;5892;43.412;24.612;2023-02-17T00:27:18;100803.50;;;2.00;100.00
11672;BME280;5892;43.412;24.612;2023-02-17T00:29:45;100793.38;;;1.79;100.00
11672;BME280;5892;43.412;24.612;2023-02-17T00:32:12;100788.16;;;1.89;100.00
11672;BME280;5892;43.412;24.612;2023-02-17T00:34:40;100791.06;;;1.99;100.00
11672;BME280;5892;43.412;24.612;2023-02-17T00:37:07;100778.13;;;2.01;100.00
11672;BME280;5892;43.412;24.612;2023-02-17T00:39:34;100789.13;;;2.11;100.00
11672;BME280;5892;43.412;24.612;2023-02-17T00:42:01;100781.59;;;2.13;100.00
11672;BME280;5892;43.412;24.612;2023-02-17T00:44:30;100781.69;;;2.19;100.00
11672;BME280;5892;43.412;24.612;2023-02-17T00:46:57;100788.66;;;2.15;100.00
11672;BME280;5892;43.412;24.612;2023-02-17T00:49:25;100780.91;;;2.06;100.00
11672;BME280;5892;43.412;24.612;2023-02-17T00:51:53;100774.75;;;1.94;100.00
11672;BME280;5892;43.412;24.612;2023-02-17T00:54:20;100764.19;;;1.93;100.00
11672;BME280;5892;43.412;24.612;2023-02-17T00:56:47;100773.69;;;1.95;100.00
11672;BME280;5892;43.412;24.612;2023-02-17T00:59:14;100772.00;;;2.06;100.00
11672;BME280;5892;43.412;24.612;2023-02-17T01:01:41;100669.28;;;1.44;100.00
11672;BME280;5892;43.412;24.612;2023-02-17T01:04:08;100766.16;;;1.97;100.00
11672;BME280;5892;43.412;24.612;2023-02-17T01:06:36;100766.06;;;1.92;100.00
11672;BME280;5892;43.412;24.612;2023-02-17T01:09:07;100768.13;;;2.02;100.00
11672;BME280;5892;43.412;24.612;2023-02-17T01:11:35;100756.66;;;1.95;100.00
11672;BME280;5892;43.412;24.612;2023-02-17T01:14:04;100753.38;;;1.93;100.00
11672;BME280;5892;43.412;24.612;2023-02-17T01:16:44;100762.16;;;2.00;100.00
11672;BME280;5892;43.412;24.612;2023-02-17T01:19:13;100755.81;;;1.94;100.00
11672;BME280;5892;43.412;24.612;2023-02-17T01:21:40;100765.34;;;1.97;100.00
11672;BME280;5892;43.412;24.612;2023-02-17T01:24:09;100717.78;;;1.67;100.00
11672;BME280;5892;43.412;24.612;2023-02-17T01:26:38;100748.81;;;2.10;100.00
11672;BME280;5892;43.412;24.612;2023-02-17T01:29:08;100737.50;;;1.96;100.00
11672;BME280;5892;43.412;24.612;2023-02-17T01:31:35;100721.19;;;1.91;100.00
11672;BME280;5892;43.412;24.612;2023-02-17T01:34:03;100760.66;;;1.92;100.00
11672;BME280;5892;43.412;24.612;2023-02-17T01:36:31;100747.16;;;1.92;100.00
11672;BME280;5892;43.412;24.612;2023-02-17T01:38:58;100752.06;;;1.95;100.00
11672;BME280;5892;43.412;24.612;2023-02-17T01:41:27;100748.22;;;1.91;100.00
11672;BME280;5892;43.412;24.612;2023-02-17T01:44:12;100746.47;;;1.85;100.00
11672;BME280;5892;43.412;24.612;2023-02-17T01:46:41;100752.47;;;1.87;100.00
11672;BME280;5892;43.412;24.612;2023-02-17T01:49:25;100750.91;;;1.91;100.00
11672;BME280;5892;43.412;24.612;2023-02-17T01:51:56;100747.81;;;1.83;100.00
11672;BME280;5892;43.412;24.612;2023-02-17T01:54:26;100743.53;;;1.87;100.00
11672;BME280;5892;43.412;24.612;2023-02-17T01:56:57;100745.75;;;1.90;100.00
11672;BME280;5892;43.412;24.612;2023-02-17T01:59:27;100745.34;;;1.81;100.00
11672;BME280;5892;43.412;24.612;2023-02-17T02:01:58;100742.81;;;1.91;100.00
11672;BME280;5892;43.412;24.612;2023-02-17T02:04:29;100739.69;;;1.99;100.00
11672;BME280;5892;43.412;24.612;2023-02-17T02:06:59;100733.50;;;2.16;99.63
11672;BME280;5892;43.412;24.612;2023-02-17T02:09:29;100733.09;;;2.07;99.39
11672;BME280;5892;43.412;24.612;2023-02-17T02:11:59;100739.41;;;2.12;99.30
11672;BME280;5892;43.412;24.612;2023-02-17T02:14:27;100748.91;;;2.15;99.27
11672;BME280;5892;43.412;24.612;2023-02-17T02:17:01;100743.75;;;2.13;98.83
11672;BME280;5892;43.412;24.612;2023-02-17T02:22:48;100741.09;;;2.02;98.62
11672;BME280;5892;43.412;24.612;2023-02-17T02:25:31;100748.56;;;2.11;97.59
11672;BME280;5892;43.412;24.612;2023-02-17T02:28:11;100710.16;;;1.93;97.34
11672;BME280;5892;43.412;24.612;2023-02-17T02:30:59;100754.38;;;2.20;96.42
11672;BME280;5892;43.412;24.612;2023-02-17T02:33:41;100729.66;;;2.11;95.89
11672;BME280;5892;43.412;24.612;2023-02-17T02:36:11;100733.94;;;2.24;95.00
11672;BME280;5892;43.412;24.612;2023-02-17T02:38:41;100747.53;;;2.29;94.59
11672;BME280;5892;43.412;24.612;2023-02-17T02:41:12;100749.34;;;2.40;93.84
11672;BME280;5892;43.412;24.612;2023-02-17T02:43:40;100744.25;;;2.27;93.90
11672;BME280;5892;43.412;24.612;2023-02-17T02:46:10;100750.78;;;2.31;94.04
11672;BME280;5892;43.412;24.612;2023-02-17T02:48:39;100755.38;;;2.31;93.75
11672;BME280;5892;43.412;24.612;2023-02-17T02:51:26;100755.22;;;2.37;93.42
11672;BME280;5892;43.412;24.612;2023-02-17T02:54:17;100760.25;;;2.45;92.70
11672;BME280;5892;43.412;24.612;2023-02-17T02:59:53;100767.19;;;2.25;93.25
11672;BME280;5892;43.412;24.612;2023-02-17T03:02:29;100765.19;;;2.20;92.71
11672;BME280;5892;43.412;24.612;2023-02-17T03:05:04;100761.22;;;2.23;91.97
11672;BME280;5892;43.412;24.612;2023-02-17T03:07:38;100771.94;;;2.18;92.23
11672;BME280;5892;43.412;24.612;2023-02-17T03:10:07;100765.19;;;2.20;91.67
11672;BME280;5892;43.412;24.612;2023-02-17T03:12:36;100757.34;;;2.19;91.52
11672;BME280;5892;43.412;24.612;2023-02-17T03:15:08;100764.16;;;2.21;91.42
11672;BME280;5892;43.412;24.612;2023-02-17T03:17:38;100762.94;;;2.29;91.00
11672;BME280;5892;43.412;24.612;2023-02-17T03:20:08;100757.84;;;2.32;90.55
11672;BME280;5892;43.412;24.612;2023-02-17T03:22:36;100771.13;;;2.34;90.71
11672;BME280;5892;43.412;24.612;2023-02-17T03:25:06;100777.69;;;2.38;90.56
11672;BME280;5892;43.412;24.612;2023-02-17T03:27:33;100761.38;;;2.33;90.24
11672;BME280;5892;43.412;24.612;2023-02-17T03:30:00;100769.88;;;2.41;90.07
11672;BME280;5892;43.412;24.612;2023-02-17T03:32:27;100767.03;;;2.48;89.81
11672;BME280;5892;43.412;24.612;2023-02-17T03:34:54;100763.78;;;2.46;89.51
11672;BME280;5892;43.412;24.612;2023-02-17T03:37:22;100765.22;;;2.53;89.41
11672;BME280;5892;43.412;24.612;2023-02-17T03:39:49;100764.47;;;2.58;88.52
11672;BME280;5892;43.412;24.612;2023-02-17T03:42:16;100759.06;;;2.58;88.68
11672;BME280;5892;43.412;24.612;2023-02-17T03:44:43;100758.25;;;2.58;88.09
11672;BME280;5892;43.412;24.612;2023-02-17T03:47:10;100769.34;;;2.56;88.24
11672;BME280;5892;43.412;24.612;2023-02-17T03:49:36;100734.72;;;2.41;88.21
11672;BME280;5892;43.412;24.612;2023-02-17T03:52:04;100762.44;;;2.65;88.67
11672;BME280;5892;43.412;24.612;2023-02-17T03:54:32;100733.28;;;2.50;88.58
11672;BME280;5892;43.412;24.612;2023-02-17T03:56:59;100761.13;;;2.68;88.38
11672;BME280;5892;43.412;24.612;2023-02-17T03:59:26;100763.72;;;2.79;88.82
11672;BME280;5892;43.412;24.612;2023-02-17T04:01:53;100767.56;;;2.83;89.04
11672;BME280;5892;43.412;24.612;2023-02-17T04:04:20;100711.28;;;2.64;88.41
11672;BME280;5892;43.412;24.612;2023-02-17T04:06:47;100758.97;;;2.86;88.60
11672;BME280;5892;43.412;24.612;2023-02-17T04:09:14;100767.16;;;2.91;88.72
11672;BME280;5892;43.412;24.612;2023-02-17T04:11:43;100756.25;;;2.86;88.88
11672;BME280;5892;43.412;24.612;2023-02-17T04:14:09;100768.81;;;2.92;88.82
11672;BME280;5892;43.412;24.612;2023-02-17T04:16:36;100759.03;;;2.91;88.64
11672;BME280;5892;43.412;24.612;2023-02-17T04:19:03;100755.41;;;3.03;88.13
11672;BME280;5892;43.412;24.612;2023-02-17T04:21:30;100738.84;;;2.99;87.32
11672;BME280;5892;43.412;24.612;2023-02-17T04:23:59;100763.88;;;3.28;86.54
11672;BME280;5892;43.412;24.612;2023-02-17T04:26:26;100774.06;;;3.42;86.30
11672;BME280;5892;43.412;24.612;2023-02-17T04:28:54;100780.63;;;3.47;85.34
11672;BME280;5892;43.412;24.612;2023-02-17T04:31:21;100780.13;;;3.50;85.60
11672;BME280;5892;43.412;24.612;2023-02-17T04:33:50;100775.78;;;3.70;84.87
11672;BME280;5892;43.412;24.612;2023-02-17T04:36:17;100772.69;;;3.62;84.25
11672;BME280;5892;43.412;24.612;2023-02-17T04:38:44;100771.59;;;3.63;84.04
11672;BME280;5892;43.412;24.612;2023-02-17T04:41:11;100780.13;;;3.71;84.06
11672;BME280;5892;43.412;24.612;2023-02-17T04:43:38;100782.03;;;3.71;83.42
11672;BME280;5892;43.412;24.612;2023-02-17T04:46:06;100780.69;;;3.73;83.47
11672;BME280;5892;43.412;24.612;2023-02-17T04:48:35;100788.00;;;3.73;83.58
11672;BME280;5892;43.412;24.612;2023-02-17T04:51:02;100784.78;;;3.76;83.08
11672;BME280;5892;43.412;24.612;2023-02-17T04:53:29;100785.09;;;3.79;82.65
11672;BME280;5892;43.412;24.612;2023-02-17T04:55:56;100791.63;;;3.83;82.77
11672;BME280;5892;43.412;24.612;2023-02-17T04:58:23;100754.75;;;3.56;83.01
11672;BME280;5892;43.412;24.612;2023-02-17T05:00:50;100784.78;;;3.76;82.94
11672;BME280;5892;43.412;24.612;2023-02-17T05:03:20;100788.03;;;3.78;83.23
11672;BME280;5892;43.412;24.612;2023-02-17T05:05:48;100796.44;;;3.76;82.89
11672;BME280;5892;43.412;24.612;2023-02-17T05:08:15;100796.88;;;3.68;83.05
11672;BME280;5892;43.412;24.612;2023-02-17T05:10:42;100785.34;;;3.56;83.47
11672;BME280;5892;43.412;24.612;2023-02-17T05:13:08;100799.09;;;3.71;82.71
11672;BME280;5892;43.412;24.612;2023-02-17T05:15:35;100798.06;;;3.77;82.24
11672;BME280;5892;43.412;24.612;2023-02-17T05:18:03;100798.59;;;3.74;82.11
11672;BME280;5892;43.412;24.612;2023-02-17T05:20:31;100784.09;;;3.64;82.15
11672;BME280;5892;43.412;24.612;2023-02-17T05:22:58;100793.28;;;3.63;82.91
11672;BME280;5892;43.412;24.612;2023-02-17T05:25:25;100789.56;;;3.69;83.00
11672;BME280;5892;43.412;24.612;2023-02-17T05:28:00;100807.72;;;3.68;82.92
11672;BME280;5892;43.412;24.612;2023-02-17T05:30:27;100802.53;;;3.67;82.94
11672;BME280;5892;43.412;24.612;2023-02-17T05:32:56;100806.03;;;3.62;83.10
11672;BME280;5892;43.412;24.612;2023-02-17T05:35:23;100771.13;;;3.44;83.67
11672;BME280;5892;43.412;24.612;2023-02-17T05:37:52;100811.44;;;3.62;83.76
11672;BME280;5892;43.412;24.612;2023-02-17T05:40:19;100819.09;;;3.65;83.85
11672;BME280;5892;43.412;24.612;2023-02-17T05:42:45;100818.31;;;3.70;83.30
11672;BME280;5892;43.412;24.612;2023-02-17T05:45:12;100810.63;;;3.62;83.18
11672;BME280;5892;43.412;24.612;2023-02-17T05:47:52;100811.91;;;3.54;83.44
11672;BME280;5892;43.412;24.612;2023-02-17T05:50:19;100830.69;;;3.61;83.21
11672;BME280;5892;43.412;24.612;2023-02-17T05:52:46;100833.81;;;3.74;82.43
11672;BME280;5892;43.412;24.612;2023-02-17T05:55:14;100836.47;;;3.91;81.73
11672;BME280;5892;43.412;24.612;2023-02-17T05:57:41;100828.50;;;4.06;81.18
11672;BME280;5892;43.412;24.612;2023-02-17T06:00:09;100845.81;;;4.27;79.77
11672;BME280;5892;43.412;24.612;2023-02-17T06:02:36;100843.81;;;4.44;78.95
11672;BME280;5892;43.412;24.612;2023-02-17T06:05:03;100773.84;;;4.19;78.47
11672;BME280;5892;43.412;24.612;2023-02-17T06:07:30;100830.09;;;4.61;77.12
11672;BME280;5892;43.412;24.612;2023-02-17T06:09:57;100859.06;;;4.82;77.14
11672;BME280;5892;43.412;24.612;2023-02-17T06:12:26;100858.94;;;4.99;76.20
11672;BME280;5892;43.412;24.612;2023-02-17T06:14:52;100851.38;;;5.06;76.07
11672;BME280;5892;43.412;24.612;2023-02-17T06:17:19;100841.81;;;4.98;75.81
11672;BME280;5892;43.412;24.612;2023-02-17T06:19:47;100856.56;;;5.07;76.21
11672;BME280;5892;43.412;24.612;2023-02-17T06:22:14;100859.53;;;5.06;75.67
11672;BME280;5892;43.412;24.612;2023-02-17T06:24:41;100869.91;;;5.14;75.82
11672;BME280;5892;43.412;24.612;2023-02-17T06:27:07;100857.13;;;5.15;75.16
11672;BME280;5892;43.412;24.612;2023-02-17T06:29:36;100856.38;;;5.24;74.64
11672;BME280;5892;43.412;24.612;2023-02-17T06:32:03;100835.47;;;5.25;74.13
11672;BME280;5892;43.412;24.612;2023-02-17T06:34:30;100853.94;;;5.65;73.73
11672;BME280;5892;43.412;24.612;2023-02-17T06:36:57;100871.75;;;5.97;72.17
11672;BME280;5892;43.412;24.612;2023-02-17T06:39:24;100880.03;;;6.28;70.87
11672;BME280;5892;43.412;24.612;2023-02-17T06:41:51;100857.47;;;6.32;69.69
11672;BME280;5892;43.412;24.612;2023-02-17T06:44:18;100877.63;;;6.57;68.88
11672;BME280;5892;43.412;24.612;2023-02-17T06:46:46;100870.84;;;6.69;68.71
11672;BME280;5892;43.412;24.612;2023-02-17T06:49:13;100852.31;;;6.51;69.06
11672;BME280;5892;43.412;24.612;2023-02-17T06:51:40;100875.50;;;6.94;68.52
11672;BME280;5892;43.412;24.612;2023-02-17T06:54:09;100885.31;;;7.10;66.77
11672;BME280;5892;43.412;24.612;2023-02-17T06:56:37;100891.84;;;7.14;66.82
11672;BME280;5892;43.412;24.612;2023-02-17T06:59:03;100893.47;;;7.26;66.13
11672;BME280;5892;43.412;24.612;2023-02-17T07:01:30;100856.41;;;7.09;64.87
11672;BME280;5892;43.412;24.612;2023-02-17T07:03:59;100873.28;;;7.32;65.37
11672;BME280;5892;43.412;24.612;2023-02-17T07:06:26;100890.44;;;7.47;64.77
11672;BME280;5892;43.412;24.612;2023-02-17T07:08:53;100874.88;;;7.53;64.48
11672;BME280;5892;43.412;24.612;2023-02-17T07:11:21;100884.16;;;7.57;64.17
11672;BME280;5892;43.412;24.612;2023-02-17T07:13:48;100807.34;;;7.09;63.95
11672;BME280;5892;43.412;24.612;2023-02-17T07:16:15;100888.47;;;7.73;63.53
11672;BME280;5892;43.412;24.612;2023-02-17T07:18:42;100894.44;;;7.80;62.96
11672;BME280;5892;43.412;24.612;2023-02-17T07:21:10;100883.50;;;7.95;62.11
11672;BME280;5892;43.412;24.612;2023-02-17T07:23:37;100883.19;;;7.97;61.27
11672;BME280;5892;43.412;24.612;2023-02-17T07:26:06;100895.91;;;8.22;61.14
11672;BME280;5892;43.412;24.612;2023-02-17T07:28:34;100892.78;;;8.48;59.77
11672;BME280;5892;43.412;24.612;2023-02-17T07:31:04;100885.97;;;8.85;58.85
11672;BME280;5892;43.412;24.612;2023-02-17T07:33:32;100893.41;;;9.13;58.03
11672;BME280;5892;43.412;24.612;2023-02-17T07:35:59;100887.97;;;9.37;58.43
11672;BME280;5892;43.412;24.612;2023-02-17T07:38:27;100884.59;;;9.50;59.00
11672;BME280;5892;43.412;24.612;2023-02-17T07:40:54;100898.59;;;9.72;57.30
11672;BME280;5892;43.412;24.612;2023-02-17T07:43:20;100902.91;;;9.78;59.06
11672;BME280;5892;43.412;24.612;2023-02-17T07:45:47;100907.66;;;9.92;58.16
11672;BME280;5892;43.412;24.612;2023-02-17T07:48:14;100906.16;;;10.04;57.15
11672;BME280;5892;43.412;24.612;2023-02-17T07:50:41;100901.34;;;10.20;55.71
11672;BME280;5892;43.412;24.612;2023-02-17T07:53:08;100903.22;;;10.43;53.32
11672;BME280;5892;43.412;24.612;2023-02-17T07:55:36;100882.09;;;10.62;52.20
11672;BME280;5892;43.412;24.612;2023-02-17T07:58:03;100900.91;;;10.88;51.50
11672;BME280;5892;43.412;24.612;2023-02-17T08:00:30;100886.56;;;11.10;48.77
11672;BME280;5892;43.412;24.612;2023-02-17T08:02:57;100895.28;;;11.30;47.83
11672;BME280;5892;43.412;24.612;2023-02-17T08:05:23;100887.88;;;11.44;47.46
11672;BME280;5892;43.412;24.612;2023-02-17T08:07:50;100887.31;;;11.61;47.18
11672;BME280;5892;43.412;24.612;2023-02-17T08:10:39;100890.00;;;11.80;46.64
11672;BME280;5892;43.412;24.612;2023-02-17T08:13:24;100884.09;;;11.86;46.04
11672;BME280;5892;43.412;24.612;2023-02-17T08:15:51;100882.34;;;12.04;45.23
11672;BME280;5892;43.412;24.612;2023-02-17T08:18:18;100873.88;;;12.14;44.23
11672;BME280;5892;43.412;24.612;2023-02-17T08:20:45;100876.63;;;12.28;43.56
11672;BME280;5892;43.412;24.612;2023-02-17T08:23:11;100864.19;;;12.30;43.24
11672;BME280;5892;43.412;24.612;2023-02-17T08:25:40;100876.47;;;12.60;42.66
11672;BME280;5892;43.412;24.612;2023-02-17T08:28:07;100882.16;;;12.64;41.55
11672;BME280;5892;43.412;24.612;2023-02-17T08:30:34;100882.03;;;12.69;40.93
11672;BME280;5892;43.412;24.612;2023-02-17T08:33:01;100875.69;;;12.82;41.08
11672;BME280;5892;43.412;24.612;2023-02-17T08:35:28;100875.91;;;12.94;40.14
11672;BME280;5892;43.412;24.612;2023-02-17T08:37:55;100870.63;;;12.98;40.63
11672;BME280;5892;43.412;24.612;2023-02-17T08:40:22;100875.53;;;13.09;40.33
11672;BME280;5892;43.412;24.612;2023-02-17T08:42:50;100845.06;;;12.97;40.09
11672;BME280;5892;43.412;24.612;2023-02-17T08:45:17;100890.44;;;13.31;40.09
11672;BME280;5892;43.412;24.612;2023-02-17T08:47:44;100898.69;;;13.31;39.62
11672;BME280;5892;43.412;24.612;2023-02-17T08:50:12;100895.81;;;13.36;40.21
11672;BME280;5892;43.412;24.612;2023-02-17T08:52:41;100885.78;;;13.40;40.34
11672;BME280;5892;43.412;24.612;2023-02-17T08:55:08;100900.75;;;13.47;40.35
11672;BME280;5892;43.412;24.612;2023-02-17T08:57:35;100895.28;;;13.56;40.88
11672;BME280;5892;43.412;24.612;2023-02-17T09:00:07;100896.44;;;13.55;40.62
11672;BME280;5892;43.412;24.612;2023-02-17T09:02:34;100894.38;;;13.69;40.10
11672;BME280;5892;43.412;24.612;2023-02-17T09:05:02;100898.81;;;13.48;39.94
11672;BME280;5892;43.412;24.612;2023-02-17T09:07:29;100895.91;;;13.53;40.28
11672;BME280;5892;43.412;24.612;2023-02-17T09:09:56;100894.66;;;13.59;39.39
11672;BME280;5892;43.412;24.612;2023-02-17T09:12:23;100902.13;;;13.67;38.99
11672;BME280;5892;43.412;24.612;2023-02-17T09:14:50;100898.63;;;13.75;39.02
11672;BME280;5892;43.412;24.612;2023-02-17T09:17:18;100898.78;;;13.79;38.80
11672;BME280;5892;43.412;24.612;2023-02-17T09:19:45;100892.63;;;13.82;38.83
11672;BME280;5892;43.412;24.612;2023-02-17T09:22:13;100890.75;;;13.91;39.28
11672;BME280;5892;43.412;24.612;2023-02-17T09:24:41;100900.22;;;14.07;39.23
11672;BME280;5892;43.412;24.612;2023-02-17T09:27:08;100885.28;;;14.08;39.25
11672;BME280;5892;43.412;24.612;2023-02-17T09:29:38;100872.59;;;13.90;39.59
11672;BME280;5892;43.412;24.612;2023-02-17T09:32:06;100906.72;;;14.11;39.80
11672;BME280;5892;43.412;24.612;2023-02-17T09:34:38;100895.38;;;14.21;40.57
11672;BME280;5892;43.412;24.612;2023-02-17T09:37:10;100907.22;;;14.22;40.01
11672;BME280;5892;43.412;24.612;2023-02-17T09:39:46;100904.16;;;14.23;40.73
11672;BME280;5892;43.412;24.612;2023-02-17T09:42:17;100898.16;;;14.30;40.82
11672;BME280;5892;43.412;24.612;2023-02-17T09:44:47;100899.94;;;14.34;41.09
11672;BME280;5892;43.412;24.612;2023-02-17T09:47:18;100903.66;;;14.30;41.09
11672;BME280;5892;43.412;24.612;2023-02-17T09:49:50;100886.81;;;14.23;41.43
11672;BME280;5892;43.412;24.612;2023-02-17T09:52:24;100885.44;;;14.03;42.23
11672;BME280;5892;43.412;24.612;2023-02-17T09:54:58;100890.16;;;14.11;42.75
11672;BME280;5892;43.412;24.612;2023-02-17T09:57:32;100889.84;;;14.13;43.30
11672;BME280;5892;43.412;24.612;2023-02-17T10:00:03;100887.41;;;14.11;43.66
11672;BME280;5892;43.412;24.612;2023-02-17T10:02:38;100836.13;;;13.84;43.54
11672;BME280;5892;43.412;24.612;2023-02-17T10:05:10;100880.28;;;14.19;43.76
11672;BME280;5892;43.412;24.612;2023-02-17T10:07:44;100872.00;;;14.10;44.33
11672;BME280;5892;43.412;24.612;2023-02-17T10:10:15;100860.81;;;14.07;43.82
11672;BME280;5892;43.412;24.612;2023-02-17T10:12:46;100871.88;;;14.24;44.39
11672;BME280;5892;43.412;24.612;2023-02-17T10:15:18;100858.41;;;14.22;44.49
11672;BME280;5892;43.412;24.612;2023-02-17T10:17:50;100855.81;;;14.34;44.81
11672;BME280;5892;43.412;24.612;2023-02-17T10:20:25;100852.78;;;14.45;45.19
11672;BME280;5892;43.412;24.612;2023-02-17T10:22:59;100854.44;;;14.54;45.06
11672;BME280;5892;43.412;24.612;2023-02-17T10:25:51;100856.69;;;14.61;45.71
11672;BME280;5892;43.412;24.612;2023-02-17T10:28:30;100836.09;;;14.58;45.85
11672;BME280;5892;43.412;24.612;2023-02-17T10:31:02;100840.97;;;14.70;46.12
11672;BME280;5892;43.412;24.612;2023-02-17T10:33:34;100826.84;;;14.71;46.41
11672;BME280;5892;43.412;24.612;2023-02-17T10:36:20;100831.56;;;14.79;46.80
11672;BME280;5892;43.412;24.612;2023-02-17T10:38:51;100836.56;;;14.95;46.79
11672;BME280;5892;43.412;24.612;2023-02-17T10:41:21;100845.66;;;14.95;46.50
11672;BME280;5892;43.412;24.612;2023-02-17T10:43:49;100834.91;;;15.11;44.56
11672;BME280;5892;43.412;24.612;2023-02-17T10:46:20;100837.34;;;15.04;42.54
11672;BME280;5892;43.412;24.612;2023-02-17T10:48:51;100826.66;;;14.94;42.29
11672;BME280;5892;43.412;24.612;2023-02-17T10:51:22;100821.28;;;15.06;41.71
11672;BME280;5892;43.412;24.612;2023-02-17T10:53:54;100836.53;;;15.12;42.32
11672;BME280;5892;43.412;24.612;2023-02-17T10:56:25;100835.22;;;15.18;42.26
11672;BME280;5892;43.412;24.612;2023-02-17T10:58:56;100832.94;;;15.20;41.86
11672;BME280;5892;43.412;24.612;2023-02-17T11:01:27;100825.97;;;15.14;41.55
11672;BME280;5892;43.412;24.612;2023-02-17T11:04:00;100813.78;;;15.15;41.69
11672;BME280;5892;43.412;24.612;2023-02-17T11:06:31;100814.38;;;15.29;41.42
11672;BME280;5892;43.412;24.612;2023-02-17T11:08:59;100830.78;;;15.34;41.98
11672;BME280;5892;43.412;24.612;2023-02-17T11:11:28;100815.38;;;15.33;42.07
11672;BME280;5892;43.412;24.612;2023-02-17T11:14:09;100800.75;;;15.24;42.25
11672;BME280;5892;43.412;24.612;2023-02-17T11:16:39;100815.13;;;15.55;41.51
11672;BME280;5892;43.412;24.612;2023-02-17T11:19:20;100793.72;;;15.44;40.79
11672;BME280;5892;43.412;24.612;2023-02-17T11:21:50;100808.16;;;15.49;39.95
11672;BME280;5892;43.412;24.612;2023-02-17T11:24:17;100804.75;;;15.52;40.05
11672;BME280;5892;43.412;24.612;2023-02-17T11:26:54;100816.94;;;15.51;40.62
11672;BME280;5892;43.412;24.612;2023-02-17T11:29:22;100803.09;;;15.60;39.92
11672;BME280;5892;43.412;24.612;2023-02-17T11:31:53;100804.72;;;15.61;40.51
11672;BME280;5892;43.412;24.612;2023-02-17T11:34:23;100807.06;;;15.80;40.81
11672;BME280;5892;43.412;24.612;2023-02-17T11:36:58;100803.25;;;15.93;39.27
11672;BME280;5892;43.412;24.612;2023-02-17T11:39:26;100786.47;;;15.98;39.22
11672;BME280;5892;43.412;24.612;2023-02-17T11:41:53;100798.34;;;15.98;39.00
11672;BME280;5892;43.412;24.612;2023-02-17T11:44:24;100797.34;;;16.03;39.49
11672;BME280;5892;43.412;24.612;2023-02-17T11:47:00;100796.28;;;16.16;38.62
11672;BME280;5892;43.412;24.612;2023-02-17T11:52:37;100788.00;;;16.16;38.06
11672;BME280;5892;43.412;24.612;2023-02-17T11:55:18;100790.00;;;16.28;38.01
11672;BME280;5892;43.412;24.612;2023-02-17T11:58:00;100785.84;;;16.42;36.92
11672;BME280;5892;43.412;24.612;2023-02-17T12:00:36;100790.97;;;16.32;36.58
11672;BME280;5892;43.412;24.612;2023-02-17T12:03:42;100783.06;;;16.42;36.50
11672;BME280;5892;43.412;24.612;2023-02-17T12:06:19;100768.28;;;16.38;36.72
11672;BME280;5892;43.412;24.612;2023-02-17T12:09:04;100783.47;;;16.32;36.92
11672;BME280;5892;43.412;24.612;2023-02-17T12:11:41;100754.53;;;16.09;36.98
11672;BME280;5892;43.412;24.612;2023-02-17T12:14:35;100756.44;;;16.17;37.29
11672;BME280;5892;43.412;24.612;2023-02-17T12:17:13;100760.88;;;16.09;37.39
11672;BME280;5892;43.412;24.612;2023-02-17T12:19:48;100755.34;;;16.09;36.89
11672;BME280;5892;43.412;24.612;2023-02-17T12:22:19;100769.38;;;16.25;36.97
11672;BME280;5892;43.412;24.612;2023-02-17T12:25:21;100764.94;;;16.33;35.78
11672;BME280;5892;43.412;24.612;2023-02-17T12:27:59;100767.13;;;16.39;34.79
11672;BME280;5892;43.412;24.612;2023-02-17T12:30:38;100779.00;;;16.40;34.31
11672;BME280;5892;43.412;24.612;2023-02-17T12:33:35;100761.41;;;16.24;33.67
11672;BME280;5892;43.412;24.612;2023-02-17T12:36:07;100780.09;;;16.06;34.86
11672;BME280;5892;43.412;24.612;2023-02-17T12:38:40;100760.66;;;15.94;35.30
11672;BME280;5892;43.412;24.612;2023-02-17T12:41:13;100765.31;;;16.02;35.74
11672;BME280;5892;43.412;24.612;2023-02-17T12:43:45;100762.34;;;16.07;36.12
11672;BME280;5892;43.412;24.612;2023-02-17T12:46:16;100763.97;;;16.08;35.34
11672;BME280;5892;43.412;24.612;2023-02-17T12:48:48;100756.06;;;15.98;34.66
11672;BME280;5892;43.412;24.612;2023-02-17T12:51:21;100766.06;;;15.90;35.39
11672;BME280;5892;43.412;24.612;2023-02-17T12:53:53;100767.84;;;15.86;36.20
11672;BME280;5892;43.412;24.612;2023-02-17T12:56:45;100760.94;;;15.72;36.78
11672;BME280;5892;43.412;24.612;2023-02-17T12:59:16;100776.09;;;15.65;36.47
11672;BME280;5892;43.412;24.612;2023-02-17T13:01:53;100782.59;;;15.70;36.35
11672;BME280;5892;43.412;24.612;2023-02-17T13:04:23;100779.84;;;15.70;36.22
11672;BME280;5892;43.412;24.612;2023-02-17T13:09:36;100776.47;;;15.55;34.96
11672;BME280;5892;43.412;24.612;2023-02-17T13:12:17;100780.53;;;15.58;35.58
11672;BME280;5892;43.412;24.612;2023-02-17T13:14:45;100783.16;;;15.54;35.99
11672;BME280;5892;43.412;24.612;2023-02-17T13:17:27;100768.03;;;15.52;36.08
11672;BME280;5892;43.412;24.612;2023-02-17T13:23:09;100779.91;;;15.52;35.53
11672;BME280;5892;43.412;24.612;2023-02-17T13:25:37;100786.50;;;15.60;35.80